Overview Statistics Trail Chart Weather Telemetry Raw packets
 

This is the latest recevied weather packets stored in our database for station/object IW1CBG-3. If no packets are shown the sender has not sent any weather packets the latest 10 day(s).

<< 2 3 4 5 6 7 8 >>
Time Temp. Humidity Pressure Rain* Wind** Luminosity Snow
1788623177 25.56° C 78% 1026.4 hPa 0 mm - - -
1788622577 25.56° C 79% 1026.5 hPa 0 mm - - -
1788621977 26.11° C 75% 1026.5 hPa 0 mm - - -
1788621378 25.56° C 76% 1026.7 hPa 0 mm - - -
1788620779 25° C 80% 1026.9 hPa 0 mm - - -
1788620177 24.44° C 82% 1026.9 hPa 0 mm - - -
1788619578 25° C 81% 1026.9 hPa 0 mm - - -
1788618995 25° C 80% 1026.8 hPa 0 mm - - -
1788618377 25° C 81% 1027.1 hPa 0 mm - - -
1788617778 25° C 79% 1026.7 hPa 0 mm - - -
1788617181 25° C 80% 1026.8 hPa 0 mm - - -
1788616577 25.56° C 78% 1026.7 hPa 0 mm - - -
1788615977 25.56° C 79% 1026.5 hPa 0 mm - - -
1788615378 25.56° C 78% 1026.6 hPa 0 mm - - -
1788614777 25.56° C 78% 1026.5 hPa 0 mm - - -
1788614178 25.56° C 78% 1026.9 hPa 0 mm - - -
1788613579 26.11° C 76% 1026.9 hPa 0 mm - - -
1788612977 25.56° C 77% 1026.7 hPa 0 mm - - -
1788612377 26.11° C 75% 1026.7 hPa 0 mm - - -
1788611777 26.11° C 76% 1026.6 hPa 0 mm - - -
1788611177 26.67° C 75% 1026.8 hPa 0 mm - - -
1788610577 26.67° C 74% 1026.8 hPa 0 mm - - -
1788609979 26.67° C 73% 1027 hPa 0 mm - - -
1788609378 26.67° C 73% 1027 hPa 0 mm - - -
1788608778 26.67° C 71% 1027 hPa 0 mm - - -

* Rain latest hour (hover to see other rain measurements)
** Current wind speed in m/s (hover to see current wind gust speed)